createdAt,value
2019-01-25T00:14:43.191Z,99.40
2019-01-25T00:24:02.011Z,98.80
2019-01-25T00:47:37.626Z,99.10
2019-01-25T01:14:40.400Z,99.30
2019-01-25T01:35:43.686Z,98.60
2019-01-25T01:41:47.745Z,98.10
2019-01-25T01:45:01.981Z,97.80
2019-01-25T01:48:21.751Z,97.70
2019-01-25T02:04:00.397Z,98.00
2019-01-25T02:25:21.512Z,97.00
2019-01-25T02:28:11.248Z,97.10
2019-01-25T02:31:12.863Z,97.60
2019-01-25T02:34:13.853Z,98.00
2019-01-25T02:37:15.107Z,98.00
2019-01-25T02:40:16.960Z,98.00
2019-01-25T02:43:18.021Z,97.60
2019-01-25T02:46:19.726Z,97.50
2019-01-25T02:49:27.502Z,97.30
2019-01-25T02:52:33.777Z,97.20
2019-01-25T02:55:35.175Z,96.90
2019-01-25T02:58:37.058Z,96.70
2019-01-25T03:10:47.733Z,97.70
2019-01-25T03:17:15.575Z,97.50
2019-01-25T03:45:31.860Z,98.40
2019-01-25T03:54:53.971Z,99.00
2019-01-25T04:00:48.723Z,99.10
2019-01-25T04:06:50.267Z,98.50
2019-01-25T04:10:08.482Z,98.40
2019-01-25T04:57:23.181Z,97.50
2019-01-25T05:00:24.687Z,97.60
2019-01-25T05:03:25.776Z,97.70
2019-01-25T05:06:26.708Z,97.90
2019-01-25T05:09:28.403Z,97.80
2019-01-25T05:12:30.116Z,97.90
2019-01-25T05:15:31.467Z,98.20
2019-01-25T05:18:31.486Z,98.40
2019-01-25T05:21:40.331Z,98.60
2019-01-25T05:24:41.394Z,98.60
2019-01-25T05:27:31.130Z,98.80
2019-01-25T05:33:47.467Z,98.90
2019-01-25T05:36:48.748Z,98.70
2019-01-25T05:39:50.439Z,98.40
2019-01-25T05:42:51.846Z,98.50
2019-01-25T05:45:53.171Z,98.40
2019-01-25T05:48:54.375Z,98.70
2019-01-25T05:51:55.919Z,99.20
2019-01-25T05:54:56.849Z,99.10
2019-01-25T05:58:04.379Z,98.90
2019-01-25T06:01:05.868Z,98.70
2019-01-25T06:04:07.905Z,98.20
2019-01-25T06:07:08.735Z,98.00
2019-01-25T06:10:10.237Z,97.80
2019-01-25T06:13:11.312Z,97.90
2019-01-25T06:16:12.863Z,98.10
2019-01-25T06:19:14.428Z,98.40
2019-01-25T06:22:16.281Z,98.60
2019-01-25T06:25:17.803Z,98.80
2019-01-25T06:31:29.541Z,99.50
2019-01-25T06:34:31.408Z,99.60
2019-01-25T06:37:33.787Z,99.30
2019-01-25T06:40:35.248Z,99.10
2019-01-25T06:43:36.767Z,98.70
2019-01-25T06:46:38.355Z,98.50
2019-01-25T06:49:38.263Z,98.50
2019-01-25T06:52:47.043Z,98.50
2019-01-25T06:55:48.250Z,98.40
2019-01-25T06:58:55.182Z,98.30
2019-01-25T07:02:12.594Z,98.20
2019-01-25T07:05:13.844Z,97.80
2019-01-25T07:08:18.135Z,97.70
2019-01-25T07:11:19.284Z,97.80
2019-01-25T07:14:21.317Z,97.40
2019-01-25T07:17:23.138Z,97.40
2019-01-25T07:20:25.014Z,97.30
2019-01-25T07:23:27.003Z,97.70
2019-01-25T07:26:28.931Z,97.50
2019-01-25T07:29:36.229Z,97.00
2019-01-25T07:32:38.063Z,97.00
2019-01-25T07:35:39.012Z,96.90
2019-01-25T07:38:40.299Z,97.20
2019-01-25T07:41:41.609Z,97.10
2019-01-25T07:44:42.707Z,96.90
2019-01-25T07:47:50.911Z,96.70
2019-01-25T08:03:06.656Z,96.60
2019-01-25T08:09:01.331Z,97.00
2019-01-25T08:18:05.508Z,97.90
2019-01-25T08:21:06.594Z,98.10
2019-01-25T08:24:08.154Z,98.40
2019-01-25T08:27:09.653Z,98.50
2019-01-25T08:33:55.717Z,97.80
2019-01-25T08:36:32.194Z,97.70
2019-01-25T08:39:34.816Z,97.80
2019-01-25T08:42:45.887Z,97.90
2019-01-25T09:09:16.119Z,97.50
2019-01-25T09:24:02.321Z,97.60
2019-01-25T09:30:20.230Z,97.70
2019-01-25T09:36:17.880Z,97.20
2019-01-25T09:39:14.764Z,97.20
2019-01-25T09:45:02.860Z,97.30
2019-01-25T09:51:15.307Z,96.90
2019-01-25T09:54:16.923Z,97.40
2019-01-25T09:57:18.779Z,96.70
2019-01-25T10:00:20.755Z,97.10
2019-01-25T10:03:21.891Z,96.80
2019-01-25T10:06:23.384Z,96.50
2019-01-25T10:09:24.711Z,96.40
2019-01-25T10:12:26.035Z,96.90
2019-01-25T10:15:27.355Z,97.10
2019-01-25T10:18:29.348Z,97.00
2019-01-25T10:21:36.763Z,97.00
2019-01-25T10:24:38.842Z,97.00
2019-01-25T10:27:48.021Z,96.60
2019-01-25T10:30:48.999Z,96.50
2019-01-25T10:33:38.889Z,96.40
2019-01-25T10:36:47.837Z,96.10
2019-01-25T10:39:48.996Z,96.10
2019-01-25T10:42:53.144Z,94.30
2019-01-25T10:45:53.888Z,93.50
2019-01-25T10:49:10.350Z,93.90
2019-01-25T10:52:11.792Z,94.00
2019-01-25T10:55:01.119Z,93.70
2019-01-25T11:01:33.654Z,93.70
2019-01-25T11:04:40.699Z,92.80
2019-01-25T11:07:42.879Z,91.40
2019-01-25T11:10:45.488Z,90.90
2019-01-25T11:13:46.420Z,90.10
2019-01-25T11:16:48.125Z,88.50
2019-01-25T11:19:49.600Z,86.00
2019-01-25T11:26:01.887Z,86.00
2019-01-25T11:29:03.031Z,86.40
2019-01-25T11:32:04.688Z,89.40
2019-01-25T11:35:12.342Z,88.90
2019-01-25T11:38:13.738Z,88.30
2019-01-25T11:41:15.775Z,87.70
2019-01-25T11:44:16.775Z,88.90
2019-01-25T11:47:18.305Z,88.20
2019-01-25T11:50:20.156Z,86.20
2019-01-25T11:53:21.218Z,86.70
2019-01-25T11:56:23.019Z,87.00
2019-01-25T11:59:24.507Z,87.40
2019-01-25T12:02:26.475Z,86.80
2019-01-25T12:05:33.436Z,87.50
2019-01-25T12:08:34.778Z,86.80
2019-01-25T12:11:37.324Z,86.40
2019-01-25T12:14:39.140Z,86.50
2019-01-25T12:17:40.083Z,87.40
2019-01-25T12:20:41.027Z,87.60
2019-01-25T12:23:42.855Z,87.20
2019-01-25T12:26:45.067Z,86.80
2019-01-25T12:29:47.038Z,85.80
2019-01-25T12:32:48.564Z,86.50
2019-01-25T12:35:56.880Z,88.20
2019-01-25T12:38:58.940Z,89.90
2019-01-25T12:42:00.746Z,89.70
2019-01-25T12:45:02.258Z,89.40
2019-01-25T12:48:03.994Z,87.90
2019-01-25T12:51:05.707Z,89.10
2019-01-25T12:54:07.466Z,90.40
2019-01-25T12:57:08.967Z,90.80
2019-01-25T13:00:11.559Z,91.30
2019-01-25T13:03:13.299Z,91.30
2019-01-25T13:06:20.816Z,90.60
2019-01-25T13:09:22.838Z,90.40
2019-01-25T13:12:25.263Z,90.70
2019-01-25T13:15:27.421Z,90.80
2019-01-25T13:18:28.695Z,90.30
2019-01-25T13:21:36.284Z,90.40
2019-01-25T13:24:41.158Z,90.70
2019-01-25T13:27:42.079Z,91.10
2019-01-25T13:30:32.543Z,91.10
2019-01-25T13:33:41.559Z,91.20
2019-01-25T13:39:50.769Z,92.30
2019-01-25T13:42:52.985Z,92.60
2019-01-25T13:45:54.854Z,92.80
2019-01-25T13:48:56.533Z,92.60
2019-01-25T13:51:58.267Z,92.40
2019-01-25T13:55:00.080Z,92.50
2019-01-25T13:58:02.033Z,92.50
2019-01-25T14:01:04.367Z,91.80
2019-01-25T14:04:06.126Z,91.50
2019-01-25T14:10:15.008Z,91.30
2019-01-25T14:13:18.592Z,91.40
2019-01-25T14:16:20.701Z,91.90
2019-01-25T14:19:22.331Z,92.10
2019-01-25T14:22:27.373Z,91.70
2019-01-25T14:25:29.261Z,91.70
2019-01-25T14:28:31.435Z,92.00
2019-01-25T14:41:12.591Z,92.50
2019-01-25T14:44:13.677Z,92.10
2019-01-25T14:47:17.453Z,92.40
2019-01-25T14:50:19.836Z,92.70
2019-01-25T14:53:25.738Z,93.00
2019-01-25T14:56:27.174Z,93.10
2019-01-25T14:59:30.898Z,93.20
2019-01-25T15:12:48.952Z,92.40
2019-01-25T15:16:10.051Z,93.10
2019-01-25T15:19:20.058Z,93.70
2019-01-25T15:22:22.274Z,93.40
2019-01-25T15:25:24.103Z,93.10
2019-01-25T15:28:29.289Z,93.40
2019-01-25T15:31:31.393Z,93.70
2019-01-25T15:38:14.912Z,93.10
2019-01-25T15:44:23.434Z,93.00
2019-01-25T15:47:25.291Z,92.70
2019-01-25T15:50:27.259Z,92.60
2019-01-25T15:53:29.231Z,92.90
2019-01-25T15:56:31.503Z,93.00
2019-01-25T15:59:33.455Z,93.10
2019-01-25T16:02:37.239Z,93.00
2019-01-25T16:05:39.511Z,93.10
2019-01-25T16:08:40.957Z,93.20
2019-01-25T16:14:51.055Z,93.00
2019-01-25T16:17:53.363Z,93.30
2019-01-25T16:21:02.770Z,93.90
2019-01-25T16:24:04.753Z,93.90
2019-01-25T16:27:09.774Z,94.00
2019-01-25T16:30:12.730Z,94.00
2019-01-25T16:33:16.233Z,94.20
2019-01-25T16:36:20.968Z,94.50
2019-01-25T16:39:24.369Z,94.80
2019-01-25T16:45:33.442Z,95.40
2019-01-25T16:48:45.053Z,95.40
2019-01-25T16:51:54.809Z,95.20
2019-01-25T16:54:45.831Z,95.60
2019-01-25T17:04:11.077Z,95.60
2019-01-25T17:07:17.795Z,95.50
2019-01-25T17:10:20.097Z,95.40
2019-01-25T17:19:32.883Z,95.20
2019-01-25T17:28:46.914Z,95.60
2019-01-25T17:31:49.083Z,95.70
2019-01-25T17:34:51.770Z,95.70
2019-01-25T17:37:53.395Z,96.00
2019-01-25T17:40:55.898Z,95.90
2019-01-25T17:47:21.751Z,95.60
2019-01-25T17:50:24.023Z,95.60
2019-01-25T17:53:27.090Z,95.60
2019-01-25T17:56:32.546Z,95.70
2019-01-25T17:59:35.016Z,95.80
2019-01-25T18:02:37.335Z,95.80
2019-01-25T18:05:38.875Z,95.90
2019-01-25T18:08:39.884Z,96.10
2019-01-25T18:11:41.667Z,95.90
2019-01-25T18:17:50.899Z,96.00
2019-01-25T18:20:52.331Z,96.10
2019-01-25T18:23:54.159Z,96.00
2019-01-25T18:26:55.449Z,95.90
2019-01-25T18:29:57.333Z,95.80
2019-01-25T18:39:02.024Z,95.90
2019-01-25T18:42:03.272Z,95.90
2019-01-25T18:45:10.534Z,95.90
2019-01-25T18:48:12.614Z,96.00
2019-01-25T18:51:14.589Z,96.10
2019-01-25T18:54:16.729Z,96.00
2019-01-25T18:57:18.023Z,96.00
2019-01-25T19:00:20.015Z,96.10
2019-01-25T19:03:21.510Z,95.90
2019-01-25T19:06:23.861Z,96.00
2019-01-25T19:09:25.792Z,96.00
2019-01-25T19:12:27.258Z,95.90
2019-01-25T19:15:34.855Z,96.10
2019-01-25T19:18:37.018Z,96.10
2019-01-25T19:21:40.180Z,95.90
2019-01-25T19:24:42.680Z,95.90
2019-01-25T19:27:44.406Z,96.20
2019-01-25T19:30:48.118Z,96.20
2019-01-25T19:33:50.144Z,96.30
2019-01-25T19:36:51.803Z,96.30
2019-01-25T19:39:58.651Z,96.10
2019-01-25T19:43:00.102Z,96.20
2019-01-25T19:49:15.714Z,96.30
2019-01-25T19:52:19.048Z,96.20
2019-01-25T19:55:22.299Z,96.40
2019-01-25T19:58:27.163Z,96.80
2019-01-25T20:01:28.810Z,96.90
2019-01-25T20:04:30.010Z,96.80
2019-01-25T20:07:32.299Z,96.90
2019-01-25T20:10:34.708Z,96.60
2019-01-25T20:13:36.529Z,96.70
2019-01-25T20:16:44.558Z,96.90
2019-01-25T20:19:46.578Z,96.50
2019-01-25T20:22:48.281Z,96.30
2019-01-25T20:25:52.771Z,96.40
2019-01-25T20:28:54.568Z,96.30
2019-01-25T20:31:56.239Z,96.10
2019-01-25T20:34:58.227Z,95.80
2019-01-25T20:38:00.229Z,95.80
2019-01-25T20:41:01.874Z,96.10
2019-01-25T20:44:03.189Z,96.30
2019-01-25T20:47:10.275Z,96.20
2019-01-25T20:50:12.543Z,95.90
2019-01-25T20:53:14.434Z,96.30
2019-01-25T20:56:22.347Z,96.00
2019-01-25T20:59:25.135Z,96.40
2019-01-25T21:02:27.382Z,96.50
2019-01-25T21:05:28.407Z,96.50
2019-01-25T21:08:30.137Z,96.50
2019-01-25T21:11:32.215Z,96.30
2019-01-25T21:14:33.492Z,96.40
2019-01-25T21:20:42.400Z,96.30
2019-01-25T21:23:44.084Z,96.10
2019-01-25T21:26:50.555Z,95.90
2019-01-25T21:29:52.370Z,96.20
2019-01-25T21:32:53.387Z,96.30
2019-01-25T21:35:54.263Z,96.50
2019-01-25T21:38:55.898Z,96.40
2019-01-25T21:41:57.306Z,96.30
2019-01-25T21:44:59.344Z,96.00
2019-01-25T21:48:08.445Z,96.00
2019-01-25T21:51:11.939Z,96.00
2019-01-25T21:54:13.587Z,95.90
2019-01-25T21:57:18.402Z,96.00
2019-01-25T22:00:19.579Z,96.50
2019-01-25T22:03:20.770Z,96.10
2019-01-25T22:06:21.779Z,95.80
2019-01-25T22:09:23.078Z,95.80
2019-01-25T22:12:24.982Z,96.10
2019-01-25T22:15:26.906Z,96.30
2019-01-25T22:18:34.803Z,96.30
2019-01-25T22:21:42.339Z,96.10
2019-01-25T22:24:44.365Z,96.10
2019-01-25T22:27:46.022Z,96.30
2019-01-25T22:30:47.587Z,96.30
2019-01-25T22:33:48.950Z,96.30
2019-01-25T22:36:50.539Z,96.40
2019-01-25T22:39:54.155Z,96.40
2019-01-25T22:42:55.874Z,96.30
2019-01-25T22:45:58.824Z,96.20
2019-01-25T22:52:03.159Z,96.10
2019-01-25T22:55:04.052Z,96.00
2019-01-25T22:58:06.125Z,96.00
2019-01-25T23:01:08.076Z,95.90
2019-01-25T23:04:08.961Z,95.90
2019-01-25T23:07:10.431Z,96.00
2019-01-25T23:10:12.266Z,96.00
2019-01-25T23:13:13.578Z,96.00
2019-01-25T23:16:15.083Z,96.20
2019-01-25T23:22:23.655Z,95.80
2019-01-25T23:28:27.873Z,95.50
2019-01-25T23:31:30.050Z,95.60
2019-01-25T23:34:30.681Z,95.60
2019-01-25T23:37:20.510Z,95.50
2019-01-25T23:43:28.086Z,95.40
2019-01-25T23:46:29.749Z,95.20
2019-01-25T23:52:26.369Z,95.30
2019-01-25T23:55:16.273Z,95.20
2019-01-25T23:58:06.342Z,95.20
